Aviation Weather View - Albury, NSW
Albury
METAR YMAY 131000Z 20005KT 9999 SCT073 16/03 Q1016
ADVISORY INFORMATION ONLY.
Information and images sourced on a "best effort" basis from
our own station 2.7NM north of the field at 1016ft AMSL.
Weather information is NOT from the Albury Airport.

Contact Ross on 0409-578-660
Updated 1025Z (13-Nov-2019 at 21:25:06 local)
Temperature 14.4 Deg C
QNH is 1017
Humidity is 48% RH
Dewpoint is 3.5 Deg C
Estimated Cloudbase is 5500 feet amsl
Wind: 3 KT from 166 degrees magnetic (154 true)
Runway 07 Crosswind 3KT Right to Left
Runway 25 Crosswind 3KT Left to Right
Wind last 10 minutes: Average 1 KT

TWR: 123.25 SMC: 121.8 AWIS: 134.525 ATIS: 115.6/133.85 Map
How to interpret the wind rose
Wind Rose
Solar Radiation Decoded METAR data
Albury Airport (94896, YMAY)
WMO Index: 95896
ID Name: YMAY
Date/Time: 13-Nov-2019 1000 UTC
Lat/Lon: 36.07S 146.95E
Wind: 200 deg true at 05.0 knots
Temperature: 15.6 deg C
Dewpoint: 3.4 deg C
QNH: 1016.3
Rain since 9am: 0.0
Rain last 10 mins: 0.0
Visibility: -9999 metres
AutoVisibility: 10000 metres
Max Wind Gust last 10 mins: 07.0 knots
Scattered 2220m (7281ft)

Calculated humidity: 44.0 %RH